CheckWX is a tool to help pilots better visualize weather data.  It is not intended as a substitute for an official pre-flight weather briefing.

13:02:55 UTC

KEKQ METAR
Wayne County Airport
Monticello, Kentucky, USA
Current

7 mins ago

KEKQ 201256Z AUTO 31006KT 10SM SCT023 21/18 A3007 RMK AO2 SLP195 T02110183 PNO $
Observed
May-20 @ 12:56 UTC
Wind
  • 310° at 6 KTS
Visibility
10 SM
Flight Rules
VFR
Cloud Levels
  • Scattered at 2,300' AGL
Temperature
21°C / 70°F
Dewpoint
18°C / 64°F
Humidity
83%
Altimeter
30.07" Hg
Pressure
1018.32 hPa
Previous

1 hour ago

KEKQ 201156Z AUTO 26011KT 10SM SCT011 OVC016 21/19 A3005 RMK AO2 SLP189 6//// 7//// T02060189 10206 20189 53016 PNO $
Observed
May-20 @ 11:56 UTC
Wind
  • 260° at 11 KTS
Visibility
10 SM
Flight Rules
MVFR
Cloud Levels
  • Scattered at 1,100' AGL
  • Overcast at 1,600' AGL
Temperature
21°C / 70°F
Dewpoint
19°C / 66°F
Humidity
88%
Altimeter
30.05" Hg
Pressure
1017.62 hPa
Previous

2 hours ago

KEKQ 201122Z AUTO 27008KT 10SM BKN013 BKN018 OVC035 19/18 RMK AO2 PNO $
Observed
May-20 @ 11:22 UTC
Wind
  • 270° at 8 KTS
Visibility
10 SM
Flight Rules
MVFR
Cloud Levels
  • Broken at 1,300' AGL
  • Broken at 1,800' AGL
  • Overcast at 3,500' AGL
Temperature
19°C / 66°F
Dewpoint
18°C / 64°F
Humidity
94%